Time;durP1;ratioP1;P1;durP2;ratioP2;P2;SDS_P1;SDS_P2;PMS_P1;PMS_P2;Temp;Humidity;BMP_temperature;BMP_pressure;BME280_temperature;BME280_humidity;BME280_pressure;Samples;Min_cycle;Max_cycle;Signal;HPM_P1;HPM_P2
2022/05/02 00:00:43;;;;;;;13.82;10.13;;;;;;;;;;4943890;29;20476;-73
2022/05/02 00:03:09;;;;;;;11.95;9.00;;;;;;;;;;4955537;29;20174;-73
2022/05/02 00:05:36;;;;;;;13.18;9.95;;;;;;;;;;4955849;29;20161;-73
2022/05/02 00:08:02;;;;;;;13.00;9.30;;;;;;;;;;4955891;29;20185;-73
2022/05/02 00:10:28;;;;;;;12.00;8.65;;;;;;;;;;4967639;28;20180;-74
2022/05/02 00:12:54;;;;;;;12.30;10.07;;;;;;;;;;4974851;28;20638;-73
2022/05/02 00:15:20;;;;;;;12.15;9.63;;;;;;;;;;4974725;28;20220;-73
2022/05/02 00:17:59;;;;;;;13.55;10.52;;;;;;;;;;4974914;28;20181;-73
2022/05/02 00:20:28;;;;;;;15.38;9.52;;;;;;;;;;4946092;29;20299;-73
2022/05/02 00:22:54;;;;;;;10.85;9.23;;;;;;;;;;4955344;29;20172;-73
2022/05/02 00:25:20;;;;;;;9.65;8.48;;;;;;;;;;4955306;28;20283;-73
2022/05/02 00:27:46;;;;;;;15.02;10.32;;;;;;;;;;4938506;29;20646;-74
2022/05/02 00:30:13;;;;;;;13.57;10.48;;;;;;;;;;4964965;28;20525;-73
2022/05/02 00:32:39;;;;;;;10.25;9.25;;;;;;;;;;4975120;28;20171;-73
2022/05/02 00:35:06;;;;;;;12.40;10.00;;;;;;;;;;4974651;28;20658;-73
2022/05/02 00:37:32;;;;;;;12.85;10.02;;;;;;;;;;4974789;28;20289;-73
2022/05/02 00:39:58;;;;;;;11.98;10.57;;;;;;;;;;4960932;28;20680;-73
2022/05/02 00:42:25;;;;;;;13.93;10.52;;;;;;;;;;4955403;29;20594;-73
2022/05/02 00:44:51;;;;;;;12.60;10.07;;;;;;;;;;4955052;29;20199;-73
2022/05/02 00:47:20;;;;;;;11.15;9.32;;;;;;;;;;4955384;29;20544;-73
2022/05/02 00:49:48;;;;;;;12.70;10.00;;;;;;;;;;4955494;28;20200;-73
2022/05/02 00:52:15;;;;;;;11.35;9.93;;;;;;;;;;4955477;29;20182;-73
2022/05/02 00:54:42;;;;;;;12.95;9.10;;;;;;;;;;4954908;29;20200;-73
2022/05/02 00:57:08;;;;;;;11.43;10.00;;;;;;;;;;4955418;29;20590;-73
2022/05/02 00:59:37;;;;;;;13.02;9.18;;;;;;;;;;4945996;28;20184;-74
2022/05/02 01:02:04;;;;;;;16.65;11.20;;;;;;;;;;4974337;28;20204;-73
2022/05/02 01:04:30;;;;;;;15.32;9.30;;;;;;;;;;4956657;28;20235;-74
2022/05/02 01:07:19;;;;;;;13.10;9.53;;;;;;;;;;4974230;28;20212;-74
2022/05/02 01:09:50;;;;;;;11.63;9.75;;;;;;;;;;4964393;28;20901;-74
2022/05/02 01:12:17;;;;;;;10.43;9.18;;;;;;;;;;4955066;29;20177;-73
2022/05/02 01:14:44;;;;;;;11.32;9.65;;;;;;;;;;4954464;29;20263;-73
2022/05/02 01:17:10;;;;;;;12.63;10.07;;;;;;;;;;4938122;29;20208;-73
2022/05/02 01:19:37;;;;;;;14.75;9.77;;;;;;;;;;4962814;28;20199;-75
2022/05/02 01:22:04;;;;;;;14.95;9.63;;;;;;;;;;4956651;28;20582;-73
2022/05/02 01:24:48;;;;;;;13.70;10.85;;;;;;;;;;4973945;28;20192;-73
2022/05/02 01:27:15;;;;;;;11.23;9.02;;;;;;;;;;4974326;28;20255;-73
2022/05/02 01:29:42;;;;;;;14.52;9.73;;;;;;;;;;4965475;28;20188;-73
2022/05/02 01:32:10;;;;;;;11.50;8.23;;;;;;;;;;4954895;29;20185;-73
2022/05/02 01:34:37;;;;;;;10.48;9.30;;;;;;;;;;4954489;29;20204;-73
2022/05/02 01:37:03;;;;;;;10.40;9.15;;;;;;;;;;4939669;29;20208;-73
2022/05/02 01:39:30;;;;;;;12.25;10.02;;;;;;;;;;4947186;28;20198;-74
2022/05/02 01:42:00;;;;;;;14.50;9.35;;;;;;;;;;4978137;28;20608;-73
2022/05/02 01:44:26;;;;;;;11.23;10.13;;;;;;;;;;4977664;28;20604;-73
2022/05/02 01:46:52;;;;;;;13.57;8.63;;;;;;;;;;4978102;28;20177;-73
2022/05/02 01:49:18;;;;;;;13.07;8.95;;;;;;;;;;4973903;28;20788;-73
2022/05/02 01:51:44;;;;;;;11.53;9.90;;;;;;;;;;4958571;29;20186;-73
2022/05/02 01:54:10;;;;;;;14.60;9.37;;;;;;;;;;4957901;29;20919;-73
2022/05/02 01:56:36;;;;;;;12.20;10.23;;;;;;;;;;4958736;29;20416;-73
2022/05/02 01:59:03;;;;;;;13.50;9.98;;;;;;;;;;4959715;28;20766;-73
2022/05/02 02:01:29;;;;;;;15.82;10.02;;;;;;;;;;4960304;28;20608;-73
2022/05/02 02:03:55;;;;;;;12.00;10.75;;;;;;;;;;4977231;28;20199;-74
2022/05/02 02:06:21;;;;;;;11.57;8.68;;;;;;;;;;4977573;28;20185;-73
2022/05/02 02:08:48;;;;;;;12.82;9.88;;;;;;;;;;4961296;28;20184;-74
2022/05/02 02:11:15;;;;;;;10.32;9.15;;;;;;;;;;4977505;28;20176;-74
2022/05/02 02:13:41;;;;;;;10.50;9.18;;;;;;;;;;4976454;28;20205;-73
2022/05/02 02:16:10;;;;;;;14.88;10.88;;;;;;;;;;4959749;28;20539;-73
2022/05/02 02:18:40;;;;;;;12.60;11.05;;;;;;;;;;4977209;28;20197;-73
2022/05/02 02:21:07;;;;;;;14.82;10.63;;;;;;;;;;4959885;28;20649;-74
2022/05/02 02:23:33;;;;;;;16.65;9.98;;;;;;;;;;4976938;28;20235;-74
2022/05/02 02:25:59;;;;;;;11.80;10.60;;;;;;;;;;4958929;28;20240;-74
2022/05/02 02:28:25;;;;;;;12.50;10.10;;;;;;;;;;4940736;29;20197;-74
2022/05/02 02:30:51;;;;;;;12.95;10.75;;;;;;;;;;4957858;29;20185;-73
2022/05/02 02:33:17;;;;;;;13.23;10.73;;;;;;;;;;4957383;29;20236;-73
2022/05/02 02:35:43;;;;;;;11.90;10.00;;;;;;;;;;4955133;28;20468;-73
2022/05/02 02:38:12;;;;;;;12.30;10.98;;;;;;;;;;4959579;28;20215;-73
2022/05/02 02:40:38;;;;;;;14.25;11.07;;;;;;;;;;4957647;28;20201;-73
2022/05/02 02:43:04;;;;;;;13.10;10.40;;;;;;;;;;4957205;29;20233;-73
2022/05/02 02:45:30;;;;;;;12.50;10.38;;;;;;;;;;4957733;29;20181;-73
2022/05/02 02:47:56;;;;;;;13.93;9.90;;;;;;;;;;4957333;28;20174;-73
2022/05/02 02:50:22;;;;;;;15.23;10.70;;;;;;;;;;4972879;28;20515;-74
2022/05/02 02:52:48;;;;;;;11.43;10.03;;;;;;;;;;4976494;28;20944;-73
2022/05/02 02:55:14;;;;;;;12.93;10.93;;;;;;;;;;4976281;28;20555;-73
2022/05/02 02:57:40;;;;;;;14.60;11.73;;;;;;;;;;4976749;28;20411;-73
2022/05/02 03:00:09;;;;;;;15.30;10.67;;;;;;;;;;4962847;28;20432;-73
2022/05/02 03:02:40;;;;;;;13.43;10.18;;;;;;;;;;4957055;29;20523;-74
2022/05/02 03:07:51;;;;;;;11.85;10.00;;;;;;;;;;4957152;29;20270;-73
2022/05/02 03:10:17;;;;;;;12.47;9.90;;;;;;;;;;4953997;28;20662;-73
2022/05/02 03:12:44;;;;;;;13.95;10.82;;;;;;;;;;4976013;28;20506;-74
2022/05/02 03:15:10;;;;;;;12.88;10.55;;;;;;;;;;4958620;28;20226;-73
2022/05/02 03:17:35;;;;;;;12.35;11.05;;;;;;;;;;4959000;28;20184;-73
2022/05/02 03:20:01;;;;;;;15.10;11.53;;;;;;;;;;4964012;28;20196;-74
2022/05/02 03:22:27;;;;;;;11.37;10.03;;;;;;;;;;4956716;29;20523;-74
2022/05/02 03:24:53;;;;;;;10.03;8.93;;;;;;;;;;4956141;29;20528;-74
2022/05/02 03:27:19;;;;;;;12.20;10.43;;;;;;;;;;4956692;29;20413;-73
2022/05/02 03:29:45;;;;;;;13.27;10.85;;;;;;;;;;4965937;28;20432;-73
2022/05/02 03:32:11;;;;;;;14.77;11.70;;;;;;;;;;4958652;28;20239;-73
2022/05/02 03:34:37;;;;;;;16.30;11.35;;;;;;;;;;4975728;28;20447;-74
2022/05/02 03:37:03;;;;;;;11.50;10.30;;;;;;;;;;4958581;28;20697;-73
2022/05/02 03:39:30;;;;;;;16.48;11.52;;;;;;;;;;4951326;29;20673;-74
2022/05/02 03:41:55;;;;;;;11.77;10.48;;;;;;;;;;4956381;28;20217;-73
2022/05/02 03:44:21;;;;;;;13.70;10.67;;;;;;;;;;4956144;29;20334;-73
2022/05/02 03:46:47;;;;;;;15.73;12.05;;;;;;;;;;4939400;29;20421;-73
2022/05/02 03:49:13;;;;;;;12.17;10.70;;;;;;;;;;4943506;28;20645;-73
2022/05/02 03:51:39;;;;;;;17.40;12.32;;;;;;;;;;4975817;28;20449;-73
2022/05/02 03:54:06;;;;;;;15.02;11.10;;;;;;;;;;4957810;28;20212;-73
2022/05/02 03:56:32;;;;;;;14.80;12.50;;;;;;;;;;4975655;28;20180;-72
2022/05/02 03:58:58;;;;;;;16.40;12.20;;;;;;;;;;4972585;28;20588;-74
2022/05/02 04:01:24;;;;;;;13.60;11.67;;;;;;;;;;4956089;29;20232;-73
2022/05/02 04:03:50;;;;;;;14.60;12.00;;;;;;;;;;4955781;29;20444;-73
2022/05/02 04:06:16;;;;;;;17.23;12.47;;;;;;;;;;4956126;29;20426;-73
2022/05/02 04:08:42;;;;;;;13.73;12.32;;;;;;;;;;4955963;29;20424;-73
2022/05/02 04:11:08;;;;;;;14.00;11.03;;;;;;;;;;4956830;28;20200;-73
2022/05/02 04:13:34;;;;;;;15.70;12.02;;;;;;;;;;4974833;28;20490;-74
2022/05/02 04:16:00;;;;;;;15.05;11.52;;;;;;;;;;4957651;28;20199;-73
2022/05/02 04:18:26;;;;;;;17.17;12.25;;;;;;;;;;4975156;28;20216;-73
2022/05/02 04:20:52;;;;;;;13.00;11.70;;;;;;;;;;4941222;29;20259;-73
2022/05/02 04:23:18;;;;;;;15.40;11.87;;;;;;;;;;4955194;29;20966;-72
2022/05/02 04:25:44;;;;;;;14.68;12.68;;;;;;;;;;4955567;29;20416;-73
2022/05/02 04:28:11;;;;;;;13.77;11.68;;;;;;;;;;4938513;29;20184;-73
2022/05/02 04:30:38;;;;;;;13.68;12.20;;;;;;;;;;4969573;28;20185;-73
2022/05/02 04:33:04;;;;;;;14.80;11.80;;;;;;;;;;4974243;28;20194;-74
2022/05/02 04:35:30;;;;;;;17.42;13.55;;;;;;;;;;4974927;28;20180;-74
2022/05/02 04:37:57;;;;;;;16.35;13.88;;;;;;;;;;4975113;28;20183;-73
2022/05/02 04:40:23;;;;;;;16.23;13.20;;;;;;;;;;4958111;28;20541;-72
2022/05/02 04:42:49;;;;;;;15.70;12.47;;;;;;;;;;4955618;29;20184;-73
2022/05/02 04:45:15;;;;;;;15.30;12.70;;;;;;;;;;4937866;29;20964;-74
2022/05/02 04:47:41;;;;;;;15.00;13.40;;;;;;;;;;4955364;29;20407;-73
2022/05/02 04:50:07;;;;;;;15.43;11.80;;;;;;;;;;4951497;28;20196;-73
2022/05/02 04:52:33;;;;;;;14.65;13.05;;;;;;;;;;4974686;28;20427;-73
2022/05/02 04:54:59;;;;;;;16.70;13.60;;;;;;;;;;4974297;28;20235;-73
2022/05/02 04:57:25;;;;;;;14.10;11.27;;;;;;;;;;4974410;28;20184;-72
2022/05/02 04:59:51;;;;;;;23.07;13.37;;;;;;;;;;4946221;29;20233;-74
2022/05/02 05:02:17;;;;;;;19.13;13.33;;;;;;;;;;4955226;29;20461;-73
2022/05/02 05:04:43;;;;;;;16.30;12.63;;;;;;;;;;4954914;29;20504;-73
2022/05/02 05:07:09;;;;;;;16.30;13.88;;;;;;;;;;4955289;29;20189;-74
2022/05/02 05:09:36;;;;;;;18.33;13.60;;;;;;;;;;4963713;28;20189;-73
2022/05/02 05:12:05;;;;;;;20.92;13.30;;;;;;;;;;4956044;28;20438;-73
2022/05/02 05:17:22;;;;;;;19.67;13.68;;;;;;;;;;4974594;28;20196;-73
2022/05/02 05:19:48;;;;;;;16.13;13.93;;;;;;;;;;4965485;28;20655;-74
2022/05/02 05:22:14;;;;;;;15.73;12.87;;;;;;;;;;4974299;28;20212;-73
2022/05/02 05:24:59;;;;;;;17.40;13.60;;;;;;;;;;4972370;28;20454;-73
2022/05/02 05:27:27;;;;;;;15.55;13.95;;;;;;;;;;4974213;28;20176;-74
2022/05/02 05:29:53;;;;;;;15.45;13.80;;;;;;;;;;4974299;28;20735;-74
2022/05/02 05:32:28;;;;;;;19.20;15.37;;;;;;;;;;4974296;28;20180;-73
2022/05/02 05:35:04;;;;;;;18.70;13.38;;;;;;;;;;4973787;28;20437;-73
2022/05/02 05:37:45;;;;;;;19.75;15.18;;;;;;;;;;4974441;28;20584;-73
2022/05/02 05:40:11;;;;;;;17.02;14.35;;;;;;;;;;4974141;28;20374;-74
2022/05/02 05:42:45;;;;;;;20.80;15.37;;;;;;;;;;4974184;28;20179;-74
2022/05/02 05:45:15;;;;;;;17.98;15.43;;;;;;;;;;4956618;28;20494;-73
2022/05/02 05:47:44;;;;;;;21.05;16.60;;;;;;;;;;4974493;28;20275;-74
2022/05/02 05:50:29;;;;;;;20.88;17.08;;;;;;;;;;4974469;28;20212;-74
2022/05/02 05:53:14;;;;;;;22.65;17.30;;;;;;;;;;4973916;28;20271;-74
2022/05/02 05:55:49;;;;;;;22.13;16.42;;;;;;;;;;4974272;28;20192;-75
2022/05/02 05:58:15;;;;;;;19.58;16.65;;;;;;;;;;4956773;28;20549;-73
2022/05/02 06:00:44;;;;;;;21.13;17.15;;;;;;;;;;4974132;28;20594;-73
2022/05/02 06:03:14;;;;;;;20.75;16.35;;;;;;;;;;4973458;28;20705;-73
2022/05/02 06:05:41;;;;;;;23.33;17.05;;;;;;;;;;4956556;28;20181;-73
2022/05/02 06:08:27;;;;;;;20.75;16.60;;;;;;;;;;4973826;28;20168;-74
2022/05/02 06:10:56;;;;;;;19.00;16.02;;;;;;;;;;4974079;28;20548;-74
2022/05/02 06:13:22;;;;;;;21.88;18.20;;;;;;;;;;4973677;28;20272;-73
2022/05/02 06:18:36;;;;;;;22.55;16.95;;;;;;;;;;4974362;28;20199;-73
2022/05/02 06:21:04;;;;;;;22.08;15.80;;;;;;;;;;4973830;28;20612;-74
2022/05/02 06:23:32;;;;;;;18.77;15.20;;;;;;;;;;4975888;28;20224;-74
2022/05/02 06:25:58;;;;;;;21.90;17.63;;;;;;;;;;4977479;28;20183;-74
2022/05/02 06:28:27;;;;;;;18.47;15.33;;;;;;;;;;4977247;28;20177;-74
2022/05/02 06:30:55;;;;;;;17.85;14.23;;;;;;;;;;4977362;28;20419;-73
2022/05/02 06:33:22;;;;;;;19.38;15.77;;;;;;;;;;4959595;28;20219;-73
2022/05/02 06:35:57;;;;;;;22.65;16.60;;;;;;;;;;4977654;28;20212;-74
2022/05/02 06:38:49;;;;;;;18.90;14.87;;;;;;;;;;4977337;28;20565;-73
2022/05/02 06:41:15;;;;;;;18.77;15.63;;;;;;;;;;4974590;28;20812;-74
2022/05/02 06:43:58;;;;;;;17.40;15.53;;;;;;;;;;4976783;28;20200;-74
2022/05/02 06:46:29;;;;;;;22.03;15.47;;;;;;;;;;4977147;28;20934;-74
2022/05/02 06:48:57;;;;;;;21.70;16.00;;;;;;;;;;4977040;28;20444;-74
2022/05/02 06:51:25;;;;;;;24.90;15.63;;;;;;;;;;4977061;28;20408;-73
2022/05/02 06:53:56;;;;;;;20.57;17.17;;;;;;;;;;4976888;28;20443;-73
2022/05/02 06:56:34;;;;;;;19.47;16.70;;;;;;;;;;4976880;28;20419;-74
2022/05/02 06:59:07;;;;;;;21.20;15.17;;;;;;;;;;4976958;28;20909;-74
2022/05/02 07:01:50;;;;;;;18.83;14.87;;;;;;;;;;4959515;28;20456;-75
2022/05/02 07:04:22;;;;;;;19.00;15.43;;;;;;;;;;4976551;28;20983;-74
2022/05/02 07:07:11;;;;;;;20.37;16.07;;;;;;;;;;4976820;28;20416;-74
2022/05/02 07:09:40;;;;;;;20.67;15.63;;;;;;;;;;4976831;28;20466;-74
2022/05/02 07:12:06;;;;;;;19.43;15.37;;;;;;;;;;4976745;28;20411;-74
2022/05/02 07:14:35;;;;;;;18.63;15.30;;;;;;;;;;4976007;28;20588;-75
2022/05/02 07:17:07;;;;;;;24.17;17.03;;;;;;;;;;4976607;28;20409;-74
2022/05/02 07:19:33;;;;;;;17.83;15.93;;;;;;;;;;4976512;28;20392;-74
2022/05/02 07:22:02;;;;;;;18.07;14.97;;;;;;;;;;4976352;28;20463;-74
2022/05/02 07:24:47;;;;;;;17.70;14.70;;;;;;;;;;4975942;28;20494;-74
2022/05/02 07:27:23;;;;;;;21.97;16.43;;;;;;;;;;4976342;28;20402;-74
2022/05/02 07:29:51;;;;;;;19.70;17.17;;;;;;;;;;4958841;28;20400;-74
2022/05/02 07:32:18;;;;;;;23.50;15.50;;;;;;;;;;4976137;28;20447;-74
2022/05/02 07:34:46;;;;;;;23.20;16.80;;;;;;;;;;4974651;28;20440;-76
2022/05/02 07:37:15;;;;;;;21.43;14.37;;;;;;;;;;4976339;28;20391;-74
2022/05/02 07:39:42;;;;;;;18.87;14.60;;;;;;;;;;4958854;28;20917;-74
2022/05/02 07:42:08;;;;;;;22.17;15.00;;;;;;;;;;4976113;28;20562;-74
2022/05/02 07:44:35;;;;;;;17.07;14.47;;;;;;;;;;4958274;28;20440;-74
2022/05/02 07:47:04;;;;;;;19.43;15.00;;;;;;;;;;4975966;28;20387;-74
2022/05/02 07:49:32;;;;;;;16.20;14.10;;;;;;;;;;4958888;28;20409;-74
2022/05/02 07:51:59;;;;;;;14.10;11.47;;;;;;;;;;4975910;28;20408;-74
2022/05/02 07:54:26;;;;;;;13.17;10.77;;;;;;;;;;4958605;28;20415;-74
2022/05/02 07:56:52;;;;;;;17.33;13.53;;;;;;;;;;4975862;28;20937;-74
2022/05/02 07:59:24;;;;;;;20.33;14.90;;;;;;;;;;4975744;28;20756;-74
2022/05/02 08:01:51;;;;;;;16.97;13.17;;;;;;;;;;4975643;28;20463;-74
2022/05/02 08:04:18;;;;;;;15.53;13.13;;;;;;;;;;4975192;28;20798;-73
2022/05/02 08:07:04;;;;;;;16.13;14.10;;;;;;;;;;4975484;28;20767;-75
2022/05/02 08:09:30;;;;;;;17.43;12.60;;;;;;;;;;4975732;28;20820;-74
2022/05/02 08:11:56;;;;;;;16.70;13.87;;;;;;;;;;4975613;28;20492;-74
2022/05/02 08:14:26;;;;;;;14.53;12.80;;;;;;;;;;4975201;28;20523;-75
2022/05/02 08:17:12;;;;;;;17.30;13.47;;;;;;;;;;4975140;28;20411;-75
2022/05/02 08:19:44;;;;;;;19.13;13.63;;;;;;;;;;4946005;28;20401;-74
2022/05/02 08:28:04;;;;;;;14.93;13.37;;;;;;;;;;4975253;28;20757;-74
2022/05/02 08:30:36;;;;;;;15.90;13.83;;;;;;;;;;4975162;28;20382;-74
2022/05/02 08:33:06;;;;;;;19.03;14.53;;;;;;;;;;4974584;28;20379;-74
2022/05/02 08:35:35;;;;;;;17.13;13.30;;;;;;;;;;4975019;28;20413;-74
2022/05/02 08:38:19;;;;;;;18.00;14.03;;;;;;;;;;4974962;28;20379;-74
2022/05/02 08:40:54;;;;;;;22.23;14.83;;;;;;;;;;4974800;28;20487;-75
2022/05/02 08:43:20;;;;;;;22.50;13.20;;;;;;;;;;4974509;28;20398;-75
2022/05/02 08:46:06;;;;;;;14.20;12.07;;;;;;;;;;4957285;28;20948;-73
2022/05/02 08:49:32;;;;;;;16.90;14.07;;;;;;;;;;4975056;28;20371;-76
2022/05/02 08:51:46;;;;;;;17.60;13.63;;;;;;;;;;4974740;28;20526;-74
2022/05/02 08:54:30;;;;;;;17.67;13.10;;;;;;;;;;4974509;28;20839;-75
2022/05/02 08:57:05;;;;;;;22.63;14.23;;;;;;;;;;4974715;28;20482;-75
2022/05/02 08:59:37;;;;;;;14.57;13.10;;;;;;;;;;4974740;28;20408;-75
2022/05/02 09:02:09;;;;;;;16.60;12.77;;;;;;;;;;4984269;28;20461;-75
2022/05/02 09:04:38;;;;;;;14.80;12.00;;;;;;;;;;4993550;28;20795;-75
2022/05/02 09:07:36;;;;;;;16.83;13.63;;;;;;;;;;4993953;28;20498;-75
2022/05/02 09:10:05;;;;;;;16.30;12.90;;;;;;;;;;4994017;28;20403;-73
2022/05/02 09:12:46;;;;;;;16.60;13.67;;;;;;;;;;4994071;28;20446;-75
2022/05/02 09:15:13;;;;;;;13.13;11.03;;;;;;;;;;4976014;28;20910;-75
2022/05/02 09:17:58;;;;;;;11.80;10.60;;;;;;;;;;4993682;28;20477;-75
2022/05/02 09:20:43;;;;;;;17.60;11.63;;;;;;;;;;4993815;28;20413;-75
2022/05/02 09:23:11;;;;;;;14.43;12.50;;;;;;;;;;4987062;28;20407;-75
2022/05/02 09:25:57;;;;;;;14.50;13.03;;;;;;;;;;4983436;28;20408;-75
2022/05/02 09:28:24;;;;;;;12.70;10.27;;;;;;;;;;4982491;28;20416;-74
2022/05/02 09:31:14;;;;;;;12.03;10.10;;;;;;;;;;4983516;28;20927;-74
2022/05/02 09:33:49;;;;;;;11.90;9.93;;;;;;;;;;4983481;28;20426;-75
2022/05/02 09:36:35;;;;;;;11.10;9.30;;;;;;;;;;4982393;28;20869;-75
2022/05/02 09:39:12;;;;;;;12.33;10.73;;;;;;;;;;4984552;28;20411;-75
2022/05/02 09:41:47;;;;;;;12.87;10.60;;;;;;;;;;4984319;28;20467;-75
2022/05/02 09:50:54;;;;;;;10.37;8.50;;;;;;;;;;4984892;28;20454;-75
2022/05/02 09:53:40;;;;;;;10.83;9.73;;;;;;;;;;4981877;28;20774;-75
2022/05/02 09:58:55;;;;;;;12.30;8.80;;;;;;;;;;4991109;28;20485;-72
2022/05/02 10:01:23;;;;;;;11.50;9.77;;;;;;;;;;4997334;28;20506;-75
2022/05/02 10:04:08;;;;;;;14.13;8.40;;;;;;;;;;4996394;28;20573;-74
2022/05/02 10:06:44;;;;;;;12.30;9.63;;;;;;;;;;4986741;28;20407;-75
2022/05/02 10:09:28;;;;;;;14.43;9.40;;;;;;;;;;4986148;28;20425;-74
2022/05/02 10:11:57;;;;;;;11.77;9.23;;;;;;;;;;4996918;28;20418;-74
2022/05/02 10:14:43;;;;;;;9.67;8.77;;;;;;;;;;4993638;28;20451;-73
2022/05/02 10:17:19;;;;;;;8.03;7.23;;;;;;;;;;4989434;28;20422;-73
2022/05/02 10:19:51;;;;;;;11.03;7.77;;;;;;;;;;4984871;28;20421;-74
2022/05/02 10:22:30;;;;;;;11.83;7.87;;;;;;;;;;4987502;28;20565;-73
2022/05/02 10:25:11;;;;;;;13.00;7.67;;;;;;;;;;4984834;28;20431;-73
2022/05/02 10:27:48;;;;;;;8.37;7.33;;;;;;;;;;4977387;28;20916;-73
2022/05/02 10:30:14;;;;;;;12.67;7.60;;;;;;;;;;4985193;28;20430;-74
2022/05/02 10:32:45;;;;;;;9.40;8.33;;;;;;;;;;4984349;28;20514;-73
2022/05/02 10:35:15;;;;;;;8.90;8.00;;;;;;;;;;4986155;28;20459;-73
2022/05/02 10:37:54;;;;;;;11.30;8.40;;;;;;;;;;4987440;28;20438;-74
2022/05/02 10:40:29;;;;;;;10.30;9.30;;;;;;;;;;4985702;28;20415;-73
2022/05/02 10:42:57;;;;;;;11.73;9.10;;;;;;;;;;4992336;28;20446;-74
2022/05/02 10:45:25;;;;;;;12.20;8.70;;;;;;;;;;4996454;28;20430;-73
2022/05/02 10:47:52;;;;;;;9.47;8.57;;;;;;;;;;4996564;28;20399;-73
2022/05/02 10:50:19;;;;;;;11.30;8.80;;;;;;;;;;4996733;28;20470;-73
2022/05/02 10:52:49;;;;;;;10.97;9.83;;;;;;;;;;4995322;28;20496;-74
2022/05/02 10:55:15;;;;;;;13.00;10.30;;;;;;;;;;4976727;28;20424;-74
2022/05/02 10:57:42;;;;;;;10.73;9.50;;;;;;;;;;4977047;28;20491;-73
2022/05/02 11:00:12;;;;;;;9.23;8.07;;;;;;;;;;4984348;28;20423;-73
2022/05/02 11:02:44;;;;;;;15.33;10.00;;;;;;;;;;4976659;28;20521;-74
2022/05/02 11:05:11;;;;;;;9.53;8.60;;;;;;;;;;4976423;28;20425;-73
2022/05/02 11:07:49;;;;;;;9.77;8.87;;;;;;;;;;4976611;28;20416;-73
2022/05/02 11:10:18;;;;;;;10.83;7.80;;;;;;;;;;4976616;28;20408;-73
2022/05/02 11:12:52;;;;;;;10.40;8.93;;;;;;;;;;4976379;28;20503;-73
2022/05/02 11:15:18;;;;;;;10.03;8.10;;;;;;;;;;4975231;28;20460;-73
2022/05/02 11:18:07;;;;;;;9.63;8.57;;;;;;;;;;4976837;28;20424;-74
2022/05/02 11:20:42;;;;;;;9.43;8.43;;;;;;;;;;4986502;28;20433;-73
2022/05/02 11:23:27;;;;;;;9.60;8.10;;;;;;;;;;4985215;28;20542;-73
2022/05/02 11:25:59;;;;;;;8.73;7.83;;;;;;;;;;4984965;28;20909;-73
2022/05/02 11:28:32;;;;;;;9.73;8.40;;;;;;;;;;4982472;28;20550;-73
2022/05/02 11:31:04;;;;;;;9.83;8.80;;;;;;;;;;4967105;28;20415;-73
2022/05/02 11:33:37;;;;;;;9.80;8.60;;;;;;;;;;4975779;28;20420;-73
2022/05/02 11:36:03;;;;;;;10.00;8.43;;;;;;;;;;4976363;28;20404;-73
2022/05/02 11:38:36;;;;;;;9.73;8.73;;;;;;;;;;4976262;28;20772;-74
2022/05/02 11:41:16;;;;;;;9.00;8.20;;;;;;;;;;4976131;28;20463;-73
2022/05/02 11:43:43;;;;;;;9.50;8.60;;;;;;;;;;4984555;28;20797;-73
2022/05/02 11:46:22;;;;;;;9.43;8.33;;;;;;;;;;4995506;28;20407;-75
2022/05/02 11:48:48;;;;;;;9.00;8.20;;;;;;;;;;4995666;28;20474;-74
2022/05/02 11:51:32;;;;;;;7.37;6.77;;;;;;;;;;4995732;28;20444;-75
2022/05/02 11:53:58;;;;;;;9.77;8.50;;;;;;;;;;4978163;28;20482;-75
2022/05/02 11:56:32;;;;;;;8.87;8.07;;;;;;;;;;4995206;28;20439;-75
2022/05/02 11:59:05;;;;;;;9.37;8.57;;;;;;;;;;4995281;28;20801;-75
2022/05/02 12:01:38;;;;;;;8.97;7.60;;;;;;;;;;4995075;28;20939;-75
2022/05/02 12:04:05;;;;;;;8.07;7.27;;;;;;;;;;4994831;28;20419;-75
2022/05/02 12:06:37;;;;;;;9.33;8.40;;;;;;;;;;4995233;28;20407;-75
2022/05/02 12:09:03;;;;;;;11.53;8.77;;;;;;;;;;4995474;28;20399;-75
2022/05/02 12:11:30;;;;;;;9.60;8.70;;;;;;;;;;4994964;28;20816;-76
2022/05/02 12:13:56;;;;;;;9.73;8.80;;;;;;;;;;4994508;28;20439;-75
2022/05/02 12:16:22;;;;;;;9.33;8.37;;;;;;;;;;4994642;28;20443;-75
2022/05/02 12:18:55;;;;;;;8.57;7.77;;;;;;;;;;4988992;28;20569;-75
2022/05/02 12:21:21;;;;;;;9.53;8.53;;;;;;;;;;4994094;28;20467;-75
2022/05/02 12:23:47;;;;;;;11.60;9.30;;;;;;;;;;4994510;28;20573;-75
2022/05/02 12:26:16;;;;;;;9.10;7.37;;;;;;;;;;4994736;28;20411;-75
2022/05/02 12:28:43;;;;;;;8.70;7.90;;;;;;;;;;4994402;28;20422;-75
2022/05/02 12:31:14;;;;;;;8.20;7.00;;;;;;;;;;4981869;28;20413;-74
2022/05/02 12:33:41;;;;;;;8.83;7.20;;;;;;;;;;4973597;28;20964;-74
2022/05/02 12:36:20;;;;;;;11.30;9.03;;;;;;;;;;4975326;28;20419;-74
2022/05/02 12:38:54;;;;;;;9.57;8.63;;;;;;;;;;4974852;28;20430;-74
2022/05/02 12:41:25;;;;;;;10.77;9.83;;;;;;;;;;4979705;28;20824;-74
2022/05/02 12:43:56;;;;;;;10.70;9.70;;;;;;;;;;4990767;28;20436;-74
2022/05/02 12:46:24;;;;;;;9.27;8.27;;;;;;;;;;4986866;28;20411;-74
2022/05/02 12:48:55;;;;;;;8.03;7.10;;;;;;;;;;4984939;28;20518;-74
2022/05/02 12:51:27;;;;;;;11.53;9.03;;;;;;;;;;4979843;28;20415;-74
2022/05/02 12:54:10;;;;;;;10.53;7.20;;;;;;;;;;4974430;28;20476;-74
2022/05/02 13:02:30;;;;;;;12.57;8.20;;;;;;;;;;4974931;28;20458;-74
2022/05/02 13:04:57;;;;;;;9.87;8.40;;;;;;;;;;4973097;28;20444;-74
2022/05/02 13:07:25;;;;;;;8.10;7.40;;;;;;;;;;4974782;28;20774;-74
2022/05/02 13:09:53;;;;;;;9.67;8.17;;;;;;;;;;4974655;28;20415;-74
2022/05/02 13:12:19;;;;;;;11.60;8.80;;;;;;;;;;4974931;28;20408;-74
2022/05/02 13:14:46;;;;;;;9.70;8.70;;;;;;;;;;4973969;28;20451;-75
2022/05/02 13:17:15;;;;;;;10.47;8.63;;;;;;;;;;4974535;28;20793;-74
2022/05/02 13:19:42;;;;;;;12.90;8.20;;;;;;;;;;4974435;28;20420;-74
2022/05/02 13:22:08;;;;;;;8.23;7.30;;;;;;;;;;4979799;28;20656;-74
2022/05/02 13:24:37;;;;;;;8.70;7.80;;;;;;;;;;4983069;28;20506;-74
2022/05/02 13:27:12;;;;;;;8.70;7.90;;;;;;;;;;4984715;28;20423;-74
2022/05/02 13:29:40;;;;;;;8.70;7.70;;;;;;;;;;4982971;28;20493;-74
2022/05/02 13:32:25;;;;;;;10.03;8.57;;;;;;;;;;4967504;28;20905;-74
2022/05/02 13:34:54;;;;;;;9.50;8.60;;;;;;;;;;4985178;28;20503;-74
2022/05/02 13:37:39;;;;;;;9.50;8.50;;;;;;;;;;4992023;28;20446;-74
2022/05/02 13:40:08;;;;;;;14.70;8.43;;;;;;;;;;4997832;28;20406;-74
2022/05/02 13:42:44;;;;;;;10.57;8.67;;;;;;;;;;4997723;28;20451;-74
2022/05/02 13:45:16;;;;;;;9.47;6.53;;;;;;;;;;4997404;28;20434;-75
2022/05/02 13:48:07;;;;;;;8.90;8.10;;;;;;;;;;4997865;28;20912;-74
2022/05/02 13:50:39;;;;;;;11.00;8.00;;;;;;;;;;4996521;28;20419;-75
2022/05/02 13:53:43;;;;;;;10.43;8.17;;;;;;;;;;4997237;28;20419;-75
2022/05/02 13:56:21;;;;;;;9.10;8.03;;;;;;;;;;4937434;29;20476;-75
2022/05/02 13:59:04;;;;;;;10.93;8.40;;;;;;;;;;4937502;29;20428;-75
2022/05/02 14:01:36;;;;;;;10.43;8.27;;;;;;;;;;4972791;28;20478;-74
2022/05/02 14:04:18;;;;;;;12.20;9.40;;;;;;;;;;4997000;28;20983;-74
2022/05/02 14:09:40;;;;;;;7.40;6.70;;;;;;;;;;4997318;28;20410;-74
2022/05/02 14:12:08;;;;;;;7.77;6.90;;;;;;;;;;4997712;28;20435;-74
2022/05/02 14:14:52;;;;;;;7.83;7.03;;;;;;;;;;4996741;28;20466;-74
2022/05/02 14:17:26;;;;;;;9.80;7.60;;;;;;;;;;4997108;28;20813;-74
2022/05/02 14:19:53;;;;;;;9.77;7.40;;;;;;;;;;4979942;28;20451;-74
2022/05/02 14:22:32;;;;;;;9.10;8.00;;;;;;;;;;4995551;28;20844;-74
2022/05/02 14:24:59;;;;;;;8.10;7.40;;;;;;;;;;4996486;28;20430;-74
2022/05/02 14:27:25;;;;;;;10.90;8.60;;;;;;;;;;4996659;28;20503;-75
2022/05/02 14:30:01;;;;;;;8.43;6.30;;;;;;;;;;4988535;28;20474;-74
2022/05/02 14:32:39;;;;;;;8.60;7.70;;;;;;;;;;4977016;28;20466;-74
2022/05/02 14:35:05;;;;;;;9.03;7.30;;;;;;;;;;4980249;28;20537;-74
2022/05/02 14:37:32;;;;;;;7.73;6.97;;;;;;;;;;4977276;28;20482;-75
2022/05/02 14:39:59;;;;;;;8.40;7.60;;;;;;;;;;4975504;28;21023;-75
2022/05/02 14:42:26;;;;;;;9.77;7.67;;;;;;;;;;4982658;28;20492;-75
2022/05/02 14:44:53;;;;;;;8.20;6.80;;;;;;;;;;4975977;28;20940;-75
2022/05/02 14:47:19;;;;;;;6.87;6.20;;;;;;;;;;4976868;28;20404;-75
2022/05/02 14:49:45;;;;;;;8.80;7.37;;;;;;;;;;4976453;28;20443;-75
2022/05/02 14:52:18;;;;;;;7.90;6.60;;;;;;;;;;4976901;28;20495;-75
2022/05/02 14:54:45;;;;;;;7.93;6.80;;;;;;;;;;4976122;28;20506;-76
2022/05/02 14:57:13;;;;;;;8.67;6.77;;;;;;;;;;4975787;28;20478;-76
2022/05/02 14:59:41;;;;;;;8.57;6.67;;;;;;;;;;4976282;28;20900;-76
2022/05/02 15:02:08;;;;;;;9.57;8.50;;;;;;;;;;4976130;28;20961;-76
2022/05/02 15:04:39;;;;;;;7.87;6.97;;;;;;;;;;4982619;28;20531;-75
2022/05/02 15:07:08;;;;;;;8.50;7.70;;;;;;;;;;4995904;28;20407;-76
2022/05/02 15:12:48;;;;;;;10.13;6.43;;;;;;;;;;4976834;28;20816;-76
2022/05/02 15:15:23;;;;;;;8.10;7.23;;;;;;;;;;4975982;28;20807;-75
2022/05/02 15:18:03;;;;;;;7.83;7.13;;;;;;;;;;4975820;28;20416;-76
2022/05/02 15:20:37;;;;;;;9.70;8.17;;;;;;;;;;4970364;28;20451;-75